sensor_id;sensor_type;location;lat;lon;timestamp;P1;durP1;ratioP1;P2;durP2;ratioP2
16115;SDS011;8162;47.104;15.432;2023-07-29T00:02:17;5.00;;;3.40;;
16115;SDS011;8162;47.104;15.432;2023-07-29T00:05:18;3.73;;;3.27;;
16115;SDS011;8162;47.104;15.432;2023-07-29T00:08:19;3.77;;;2.97;;
16115;SDS011;8162;47.104;15.432;2023-07-29T00:11:20;4.00;;;3.37;;
16115;SDS011;8162;47.104;15.432;2023-07-29T00:14:21;3.93;;;3.53;;
16115;SDS011;8162;47.104;15.432;2023-07-29T00:17:22;3.33;;;3.03;;
16115;SDS011;8162;47.104;15.432;2023-07-29T00:20:23;3.90;;;3.50;;
16115;SDS011;8162;47.104;15.432;2023-07-29T00:23:24;3.83;;;3.17;;
16115;SDS011;8162;47.104;15.432;2023-07-29T00:26:25;3.60;;;3.00;;
16115;SDS011;8162;47.104;15.432;2023-07-29T00:29:28;4.53;;;3.30;;
16115;SDS011;8162;47.104;15.432;2023-07-29T00:32:29;5.20;;;3.20;;
16115;SDS011;8162;47.104;15.432;2023-07-29T00:35:31;4.40;;;3.30;;
16115;SDS011;8162;47.104;15.432;2023-07-29T00:38:32;4.93;;;3.37;;
16115;SDS011;8162;47.104;15.432;2023-07-29T00:41:33;3.83;;;3.07;;
16115;SDS011;8162;47.104;15.432;2023-07-29T00:44:34;5.30;;;3.10;;
16115;SDS011;8162;47.104;15.432;2023-07-29T00:47:35;3.43;;;2.90;;
16115;SDS011;8162;47.104;15.432;2023-07-29T00:50:36;6.03;;;3.20;;
16115;SDS011;8162;47.104;15.432;2023-07-29T00:53:37;4.43;;;3.00;;
16115;SDS011;8162;47.104;15.432;2023-07-29T00:56:38;5.17;;;3.13;;
16115;SDS011;8162;47.104;15.432;2023-07-29T00:59:40;3.50;;;3.00;;
16115;SDS011;8162;47.104;15.432;2023-07-29T01:02:42;3.07;;;2.77;;
16115;SDS011;8162;47.104;15.432;2023-07-29T01:05:50;3.30;;;3.00;;
16115;SDS011;8162;47.104;15.432;2023-07-29T01:12:01;3.17;;;2.87;;
16115;SDS011;8162;47.104;15.432;2023-07-29T01:15:26;3.63;;;3.33;;
16115;SDS011;8162;47.104;15.432;2023-07-29T01:18:31;8.23;;;3.43;;
16115;SDS011;8162;47.104;15.432;2023-07-29T01:21:33;4.67;;;3.10;;
16115;SDS011;8162;47.104;15.432;2023-07-29T01:24:36;3.60;;;3.30;;
16115;SDS011;8162;47.104;15.432;2023-07-29T01:27:37;5.80;;;3.10;;
16115;SDS011;8162;47.104;15.432;2023-07-29T01:30:39;3.77;;;2.93;;
16115;SDS011;8162;47.104;15.432;2023-07-29T01:33:47;4.60;;;3.40;;
16115;SDS011;8162;47.104;15.432;2023-07-29T01:36:49;5.77;;;3.40;;
16115;SDS011;8162;47.104;15.432;2023-07-29T01:39:51;4.10;;;2.67;;
16115;SDS011;8162;47.104;15.432;2023-07-29T01:42:54;3.67;;;3.30;;
16115;SDS011;8162;47.104;15.432;2023-07-29T01:45:56;4.70;;;3.30;;
16115;SDS011;8162;47.104;15.432;2023-07-29T01:48:57;5.70;;;3.80;;
16115;SDS011;8162;47.104;15.432;2023-07-29T01:51:58;5.00;;;3.27;;
16115;SDS011;8162;47.104;15.432;2023-07-29T01:54:59;5.00;;;3.80;;
16115;SDS011;8162;47.104;15.432;2023-07-29T01:58:00;3.33;;;3.03;;
16115;SDS011;8162;47.104;15.432;2023-07-29T02:01:01;4.17;;;3.10;;
16115;SDS011;8162;47.104;15.432;2023-07-29T02:04:02;4.20;;;3.13;;
16115;SDS011;8162;47.104;15.432;2023-07-29T02:07:03;5.57;;;3.43;;
16115;SDS011;8162;47.104;15.432;2023-07-29T02:10:05;5.83;;;3.57;;
16115;SDS011;8162;47.104;15.432;2023-07-29T02:13:06;3.73;;;3.07;;
16115;SDS011;8162;47.104;15.432;2023-07-29T02:16:07;3.93;;;3.07;;
16115;SDS011;8162;47.104;15.432;2023-07-29T02:19:08;4.10;;;3.07;;
16115;SDS011;8162;47.104;15.432;2023-07-29T02:22:10;4.57;;;3.40;;
16115;SDS011;8162;47.104;15.432;2023-07-29T02:25:11;6.00;;;3.67;;
16115;SDS011;8162;47.104;15.432;2023-07-29T02:28:12;6.67;;;3.30;;
16115;SDS011;8162;47.104;15.432;2023-07-29T02:31:15;3.70;;;3.40;;
16115;SDS011;8162;47.104;15.432;2023-07-29T02:34:16;3.93;;;3.50;;
16115;SDS011;8162;47.104;15.432;2023-07-29T02:37:17;8.13;;;3.17;;
16115;SDS011;8162;47.104;15.432;2023-07-29T02:40:19;5.20;;;3.37;;
16115;SDS011;8162;47.104;15.432;2023-07-29T02:43:20;3.87;;;3.47;;
16115;SDS011;8162;47.104;15.432;2023-07-29T02:46:22;4.67;;;3.53;;
16115;SDS011;8162;47.104;15.432;2023-07-29T02:49:23;4.13;;;3.43;;
16115;SDS011;8162;47.104;15.432;2023-07-29T02:52:24;4.90;;;3.00;;
16115;SDS011;8162;47.104;15.432;2023-07-29T02:55:26;3.80;;;3.37;;
16115;SDS011;8162;47.104;15.432;2023-07-29T02:58:27;3.67;;;3.37;;
16115;SDS011;8162;47.104;15.432;2023-07-29T03:01:28;3.57;;;3.23;;
16115;SDS011;8162;47.104;15.432;2023-07-29T03:04:29;4.97;;;3.17;;
16115;SDS011;8162;47.104;15.432;2023-07-29T03:07:30;3.43;;;3.13;;
16115;SDS011;8162;47.104;15.432;2023-07-29T03:10:31;5.27;;;3.80;;
16115;SDS011;8162;47.104;15.432;2023-07-29T03:13:32;4.63;;;3.70;;
16115;SDS011;8162;47.104;15.432;2023-07-29T03:16:33;3.40;;;3.10;;
16115;SDS011;8162;47.104;15.432;2023-07-29T03:19:34;3.40;;;3.10;;
16115;SDS011;8162;47.104;15.432;2023-07-29T03:22:35;3.50;;;3.07;;
16115;SDS011;8162;47.104;15.432;2023-07-29T03:25:36;5.20;;;3.47;;
16115;SDS011;8162;47.104;15.432;2023-07-29T03:28:38;3.77;;;3.47;;
16115;SDS011;8162;47.104;15.432;2023-07-29T03:31:39;3.40;;;3.10;;
16115;SDS011;8162;47.104;15.432;2023-07-29T03:34:40;3.87;;;3.43;;
16115;SDS011;8162;47.104;15.432;2023-07-29T03:37:42;4.30;;;3.30;;
16115;SDS011;8162;47.104;15.432;2023-07-29T03:40:43;4.00;;;3.60;;
16115;SDS011;8162;47.104;15.432;2023-07-29T03:43:44;4.20;;;3.70;;
16115;SDS011;8162;47.104;15.432;2023-07-29T03:46:45;5.03;;;3.47;;
16115;SDS011;8162;47.104;15.432;2023-07-29T03:49:46;4.37;;;3.23;;
16115;SDS011;8162;47.104;15.432;2023-07-29T03:52:47;4.00;;;3.63;;
16115;SDS011;8162;47.104;15.432;2023-07-29T03:55:48;7.97;;;3.73;;
16115;SDS011;8162;47.104;15.432;2023-07-29T03:58:50;4.10;;;3.70;;
16115;SDS011;8162;47.104;15.432;2023-07-29T04:01:51;4.03;;;3.67;;
16115;SDS011;8162;47.104;15.432;2023-07-29T04:04:52;3.70;;;3.30;;
16115;SDS011;8162;47.104;15.432;2023-07-29T04:07:53;3.63;;;3.33;;
16115;SDS011;8162;47.104;15.432;2023-07-29T04:10:54;4.13;;;3.30;;
16115;SDS011;8162;47.104;15.432;2023-07-29T04:13:55;4.90;;;3.33;;
16115;SDS011;8162;47.104;15.432;2023-07-29T04:16:57;4.13;;;3.73;;
16115;SDS011;8162;47.104;15.432;2023-07-29T04:19:58;4.17;;;3.77;;
16115;SDS011;8162;47.104;15.432;2023-07-29T04:22:59;4.07;;;3.30;;
16115;SDS011;8162;47.104;15.432;2023-07-29T04:26:00;3.43;;;3.13;;
16115;SDS011;8162;47.104;15.432;2023-07-29T04:29:01;4.10;;;3.70;;
16115;SDS011;8162;47.104;15.432;2023-07-29T04:32:02;4.03;;;3.20;;
16115;SDS011;8162;47.104;15.432;2023-07-29T04:35:03;3.80;;;3.50;;
16115;SDS011;8162;47.104;15.432;2023-07-29T04:38:05;3.87;;;3.50;;
16115;SDS011;8162;47.104;15.432;2023-07-29T04:41:06;4.47;;;3.50;;
16115;SDS011;8162;47.104;15.432;2023-07-29T04:44:09;4.33;;;3.13;;
16115;SDS011;8162;47.104;15.432;2023-07-29T04:47:10;6.07;;;3.33;;
16115;SDS011;8162;47.104;15.432;2023-07-29T04:50:11;3.67;;;3.37;;
16115;SDS011;8162;47.104;15.432;2023-07-29T04:53:12;5.10;;;3.70;;
16115;SDS011;8162;47.104;15.432;2023-07-29T04:56:13;4.60;;;3.83;;
16115;SDS011;8162;47.104;15.432;2023-07-29T04:59:14;5.73;;;4.00;;
16115;SDS011;8162;47.104;15.432;2023-07-29T05:02:15;4.33;;;3.63;;
16115;SDS011;8162;47.104;15.432;2023-07-29T05:05:16;4.10;;;3.60;;
16115;SDS011;8162;47.104;15.432;2023-07-29T05:08:17;4.07;;;3.67;;
16115;SDS011;8162;47.104;15.432;2023-07-29T05:11:18;3.60;;;3.27;;
16115;SDS011;8162;47.104;15.432;2023-07-29T05:14:19;3.57;;;3.27;;
16115;SDS011;8162;47.104;15.432;2023-07-29T05:17:21;3.57;;;3.27;;
16115;SDS011;8162;47.104;15.432;2023-07-29T05:20:22;4.37;;;3.97;;
16115;SDS011;8162;47.104;15.432;2023-07-29T05:23:23;5.70;;;3.80;;
16115;SDS011;8162;47.104;15.432;2023-07-29T05:26:24;3.60;;;3.30;;
16115;SDS011;8162;47.104;15.432;2023-07-29T05:29:25;5.83;;;3.40;;
16115;SDS011;8162;47.104;15.432;2023-07-29T05:32:26;3.83;;;3.40;;
16115;SDS011;8162;47.104;15.432;2023-07-29T05:35:28;4.77;;;4.23;;
16115;SDS011;8162;47.104;15.432;2023-07-29T05:38:29;4.13;;;3.67;;
16115;SDS011;8162;47.104;15.432;2023-07-29T05:41:30;4.80;;;4.20;;
16115;SDS011;8162;47.104;15.432;2023-07-29T05:44:31;4.30;;;3.90;;
16115;SDS011;8162;47.104;15.432;2023-07-29T05:47:32;4.83;;;3.70;;
16115;SDS011;8162;47.104;15.432;2023-07-29T05:50:33;3.87;;;3.40;;
16115;SDS011;8162;47.104;15.432;2023-07-29T05:53:34;4.80;;;3.97;;
16115;SDS011;8162;47.104;15.432;2023-07-29T05:56:35;5.53;;;3.73;;
16115;SDS011;8162;47.104;15.432;2023-07-29T05:59:36;6.07;;;4.07;;
16115;SDS011;8162;47.104;15.432;2023-07-29T06:02:37;4.50;;;3.70;;
16115;SDS011;8162;47.104;15.432;2023-07-29T06:05:39;4.70;;;3.63;;
16115;SDS011;8162;47.104;15.432;2023-07-29T06:08:40;4.67;;;3.80;;
16115;SDS011;8162;47.104;15.432;2023-07-29T06:11:41;5.03;;;4.47;;
16115;SDS011;8162;47.104;15.432;2023-07-29T06:14:42;4.10;;;3.27;;
16115;SDS011;8162;47.104;15.432;2023-07-29T06:17:43;6.13;;;4.40;;
16115;SDS011;8162;47.104;15.432;2023-07-29T06:20:44;5.73;;;4.23;;
16115;SDS011;8162;47.104;15.432;2023-07-29T06:23:46;4.63;;;3.93;;
16115;SDS011;8162;47.104;15.432;2023-07-29T06:26:47;5.00;;;3.90;;
16115;SDS011;8162;47.104;15.432;2023-07-29T06:29:48;3.97;;;3.57;;
16115;SDS011;8162;47.104;15.432;2023-07-29T06:32:49;3.93;;;3.53;;
16115;SDS011;8162;47.104;15.432;2023-07-29T06:35:50;4.87;;;4.10;;
16115;SDS011;8162;47.104;15.432;2023-07-29T06:38:51;5.27;;;3.83;;
16115;SDS011;8162;47.104;15.432;2023-07-29T06:41:53;3.67;;;3.13;;
16115;SDS011;8162;47.104;15.432;2023-07-29T06:44:54;4.10;;;3.70;;
16115;SDS011;8162;47.104;15.432;2023-07-29T06:47:55;3.70;;;3.40;;
16115;SDS011;8162;47.104;15.432;2023-07-29T06:50:56;6.00;;;4.10;;
16115;SDS011;8162;47.104;15.432;2023-07-29T06:54:01;4.73;;;3.90;;
16115;SDS011;8162;47.104;15.432;2023-07-29T06:57:02;5.97;;;3.80;;
16115;SDS011;8162;47.104;15.432;2023-07-29T07:00:03;4.57;;;3.80;;
16115;SDS011;8162;47.104;15.432;2023-07-29T07:03:04;5.33;;;3.90;;
16115;SDS011;8162;47.104;15.432;2023-07-29T07:06:05;4.40;;;4.00;;
16115;SDS011;8162;47.104;15.432;2023-07-29T07:09:06;4.73;;;3.97;;
16115;SDS011;8162;47.104;15.432;2023-07-29T07:12:07;6.47;;;3.87;;
16115;SDS011;8162;47.104;15.432;2023-07-29T07:15:08;4.43;;;4.03;;
16115;SDS011;8162;47.104;15.432;2023-07-29T07:18:09;4.80;;;3.37;;
16115;SDS011;8162;47.104;15.432;2023-07-29T07:21:10;4.03;;;3.50;;
16115;SDS011;8162;47.104;15.432;2023-07-29T07:24:11;5.70;;;3.93;;
16115;SDS011;8162;47.104;15.432;2023-07-29T07:27:12;4.00;;;3.60;;
16115;SDS011;8162;47.104;15.432;2023-07-29T07:30:14;4.60;;;3.57;;
16115;SDS011;8162;47.104;15.432;2023-07-29T07:33:15;3.73;;;3.33;;
16115;SDS011;8162;47.104;15.432;2023-07-29T07:36:16;3.57;;;3.27;;
16115;SDS011;8162;47.104;15.432;2023-07-29T07:39:17;3.90;;;3.60;;
16115;SDS011;8162;47.104;15.432;2023-07-29T07:42:18;3.57;;;3.27;;
16115;SDS011;8162;47.104;15.432;2023-07-29T07:45:19;4.23;;;3.60;;
16115;SDS011;8162;47.104;15.432;2023-07-29T07:48:20;4.23;;;3.83;;
16115;SDS011;8162;47.104;15.432;2023-07-29T07:51:21;4.53;;;3.93;;
16115;SDS011;8162;47.104;15.432;2023-07-29T07:54:22;4.37;;;3.93;;
16115;SDS011;8162;47.104;15.432;2023-07-29T07:57:23;4.37;;;3.97;;
16115;SDS011;8162;47.104;15.432;2023-07-29T08:00:24;3.60;;;3.30;;
16115;SDS011;8162;47.104;15.432;2023-07-29T08:03:25;4.77;;;3.80;;
16115;SDS011;8162;47.104;15.432;2023-07-29T08:06:26;4.00;;;3.60;;
16115;SDS011;8162;47.104;15.432;2023-07-29T08:09:27;3.73;;;3.37;;
16115;SDS011;8162;47.104;15.432;2023-07-29T08:12:28;4.13;;;3.40;;
16115;SDS011;8162;47.104;15.432;2023-07-29T08:15:29;4.33;;;3.53;;
16115;SDS011;8162;47.104;15.432;2023-07-29T08:18:30;4.10;;;3.20;;
16115;SDS011;8162;47.104;15.432;2023-07-29T08:21:31;3.23;;;2.93;;
16115;SDS011;8162;47.104;15.432;2023-07-29T08:24:33;6.90;;;3.77;;
16115;SDS011;8162;47.104;15.432;2023-07-29T08:27:34;3.50;;;3.17;;
16115;SDS011;8162;47.104;15.432;2023-07-29T08:30:35;2.97;;;2.77;;
16115;SDS011;8162;47.104;15.432;2023-07-29T08:33:36;3.30;;;3.00;;
16115;SDS011;8162;47.104;15.432;2023-07-29T08:36:37;3.80;;;3.23;;
16115;SDS011;8162;47.104;15.432;2023-07-29T08:39:38;3.53;;;3.13;;
16115;SDS011;8162;47.104;15.432;2023-07-29T08:42:39;3.40;;;3.00;;
16115;SDS011;8162;47.104;15.432;2023-07-29T08:45:42;3.43;;;3.13;;
16115;SDS011;8162;47.104;15.432;2023-07-29T08:48:44;4.10;;;2.87;;
16115;SDS011;8162;47.104;15.432;2023-07-29T08:51:46;3.60;;;3.30;;
16115;SDS011;8162;47.104;15.432;2023-07-29T08:54:48;3.97;;;3.07;;
16115;SDS011;8162;47.104;15.432;2023-07-29T08:57:49;4.30;;;3.03;;
16115;SDS011;8162;47.104;15.432;2023-07-29T09:00:50;3.73;;;3.13;;
16115;SDS011;8162;47.104;15.432;2023-07-29T09:03:51;3.73;;;3.43;;
16115;SDS011;8162;47.104;15.432;2023-07-29T09:06:52;3.30;;;3.00;;
16115;SDS011;8162;47.104;15.432;2023-07-29T09:09:54;3.37;;;2.93;;
16115;SDS011;8162;47.104;15.432;2023-07-29T09:12:55;3.57;;;3.27;;
16115;SDS011;8162;47.104;15.432;2023-07-29T09:15:57;3.30;;;3.00;;
16115;SDS011;8162;47.104;15.432;2023-07-29T09:19:00;4.37;;;3.10;;
16115;SDS011;8162;47.104;15.432;2023-07-29T09:22:01;3.33;;;3.03;;
16115;SDS011;8162;47.104;15.432;2023-07-29T09:25:03;3.43;;;3.13;;
16115;SDS011;8162;47.104;15.432;2023-07-29T09:28:11;2.60;;;2.40;;
16115;SDS011;8162;47.104;15.432;2023-07-29T09:31:22;4.30;;;3.07;;
16115;SDS011;8162;47.104;15.432;2023-07-29T09:34:23;3.27;;;2.97;;
16115;SDS011;8162;47.104;15.432;2023-07-29T09:37:24;3.63;;;3.33;;
16115;SDS011;8162;47.104;15.432;2023-07-29T09:40:25;3.53;;;2.73;;
16115;SDS011;8162;47.104;15.432;2023-07-29T09:43:30;4.63;;;3.07;;
16115;SDS011;8162;47.104;15.432;2023-07-29T09:46:32;2.83;;;2.53;;
16115;SDS011;8162;47.104;15.432;2023-07-29T09:49:37;2.83;;;2.63;;
16115;SDS011;8162;47.104;15.432;2023-07-29T09:52:38;3.17;;;2.87;;
16115;SDS011;8162;47.104;15.432;2023-07-29T09:55:39;2.67;;;2.47;;
16115;SDS011;8162;47.104;15.432;2023-07-29T09:58:40;3.13;;;2.83;;
16115;SDS011;8162;47.104;15.432;2023-07-29T10:01:43;2.70;;;2.50;;
16115;SDS011;8162;47.104;15.432;2023-07-29T10:04:44;2.70;;;2.50;;
16115;SDS011;8162;47.104;15.432;2023-07-29T10:07:46;2.83;;;2.63;;
16115;SDS011;8162;47.104;15.432;2023-07-29T10:10:49;2.53;;;2.33;;
16115;SDS011;8162;47.104;15.432;2023-07-29T10:13:50;3.10;;;2.90;;
16115;SDS011;8162;47.104;15.432;2023-07-29T10:16:52;4.80;;;2.73;;
16115;SDS011;8162;47.104;15.432;2023-07-29T10:19:53;3.53;;;2.97;;
16115;SDS011;8162;47.104;15.432;2023-07-29T10:22:54;3.17;;;2.87;;
16115;SDS011;8162;47.104;15.432;2023-07-29T10:26:02;3.70;;;2.70;;
16115;SDS011;8162;47.104;15.432;2023-07-29T10:29:06;3.83;;;2.73;;
16115;SDS011;8162;47.104;15.432;2023-07-29T10:32:08;2.93;;;2.63;;
16115;SDS011;8162;47.104;15.432;2023-07-29T10:35:11;2.80;;;2.60;;
16115;SDS011;8162;47.104;15.432;2023-07-29T10:38:12;3.90;;;2.80;;
16115;SDS011;8162;47.104;15.432;2023-07-29T10:41:14;3.03;;;2.83;;
16115;SDS011;8162;47.104;15.432;2023-07-29T10:47:35;2.70;;;2.50;;
16115;SDS011;8162;47.104;15.432;2023-07-29T10:50:36;3.03;;;2.73;;
16115;SDS011;8162;47.104;15.432;2023-07-29T10:53:37;3.20;;;2.90;;
16115;SDS011;8162;47.104;15.432;2023-07-29T10:56:42;5.10;;;2.87;;
16115;SDS011;8162;47.104;15.432;2023-07-29T10:59:54;2.57;;;2.37;;
16115;SDS011;8162;47.104;15.432;2023-07-29T11:03:02;2.87;;;2.67;;
16115;SDS011;8162;47.104;15.432;2023-07-29T11:06:04;3.10;;;2.80;;
16115;SDS011;8162;47.104;15.432;2023-07-29T11:09:38;3.67;;;2.93;;
16115;SDS011;8162;47.104;15.432;2023-07-29T11:12:45;2.93;;;2.67;;
16115;SDS011;8162;47.104;15.432;2023-07-29T11:15:47;2.67;;;2.47;;
16115;SDS011;8162;47.104;15.432;2023-07-29T11:18:50;3.30;;;2.47;;
16115;SDS011;8162;47.104;15.432;2023-07-29T11:21:51;2.90;;;2.63;;
16115;SDS011;8162;47.104;15.432;2023-07-29T11:24:53;3.13;;;2.60;;
16115;SDS011;8162;47.104;15.432;2023-07-29T11:27:55;2.70;;;2.50;;
16115;SDS011;8162;47.104;15.432;2023-07-29T11:30:57;2.70;;;2.50;;
16115;SDS011;8162;47.104;15.432;2023-07-29T11:33:58;2.90;;;2.70;;
16115;SDS011;8162;47.104;15.432;2023-07-29T11:37:00;2.53;;;2.33;;
16115;SDS011;8162;47.104;15.432;2023-07-29T11:40:00;4.07;;;2.73;;
16115;SDS011;8162;47.104;15.432;2023-07-29T11:43:02;3.80;;;2.37;;
16115;SDS011;8162;47.104;15.432;2023-07-29T11:46:03;2.47;;;2.00;;
16115;SDS011;8162;47.104;15.432;2023-07-29T11:49:04;2.43;;;2.23;;
16115;SDS011;8162;47.104;15.432;2023-07-29T11:52:09;2.50;;;2.30;;
16115;SDS011;8162;47.104;15.432;2023-07-29T11:55:11;2.50;;;2.30;;
16115;SDS011;8162;47.104;15.432;2023-07-29T11:58:13;2.67;;;2.47;;
16115;SDS011;8162;47.104;15.432;2023-07-29T12:01:15;2.70;;;2.50;;
16115;SDS011;8162;47.104;15.432;2023-07-29T12:04:16;3.87;;;2.47;;
16115;SDS011;8162;47.104;15.432;2023-07-29T12:07:17;3.50;;;3.07;;
16115;SDS011;8162;47.104;15.432;2023-07-29T12:10:19;2.63;;;2.43;;
16115;SDS011;8162;47.104;15.432;2023-07-29T12:13:23;2.60;;;2.27;;
16115;SDS011;8162;47.104;15.432;2023-07-29T12:16:25;2.53;;;2.33;;
16115;SDS011;8162;47.104;15.432;2023-07-29T12:19:30;2.80;;;2.50;;
16115;SDS011;8162;47.104;15.432;2023-07-29T12:22:35;2.57;;;2.37;;
16115;SDS011;8162;47.104;15.432;2023-07-29T12:25:36;2.30;;;2.10;;
16115;SDS011;8162;47.104;15.432;2023-07-29T12:28:37;3.30;;;2.30;;
16115;SDS011;8162;47.104;15.432;2023-07-29T12:31:38;2.87;;;2.37;;
16115;SDS011;8162;47.104;15.432;2023-07-29T12:34:39;2.50;;;2.30;;
16115;SDS011;8162;47.104;15.432;2023-07-29T12:37:40;2.50;;;2.30;;
16115;SDS011;8162;47.104;15.432;2023-07-29T12:40:44;2.30;;;2.10;;
16115;SDS011;8162;47.104;15.432;2023-07-29T12:43:44;2.93;;;2.20;;
16115;SDS011;8162;47.104;15.432;2023-07-29T12:46:45;3.50;;;2.73;;
16115;SDS011;8162;47.104;15.432;2023-07-29T12:49:46;2.57;;;2.37;;
16115;SDS011;8162;47.104;15.432;2023-07-29T12:52:47;2.17;;;2.07;;
16115;SDS011;8162;47.104;15.432;2023-07-29T12:55:47;2.50;;;2.30;;
16115;SDS011;8162;47.104;15.432;2023-07-29T12:58:48;2.77;;;2.57;;
16115;SDS011;8162;47.104;15.432;2023-07-29T13:01:50;2.80;;;2.60;;
16115;SDS011;8162;47.104;15.432;2023-07-29T13:04:51;3.40;;;2.67;;
16115;SDS011;8162;47.104;15.432;2023-07-29T13:07:52;3.13;;;2.83;;
16115;SDS011;8162;47.104;15.432;2023-07-29T13:10:53;2.37;;;2.17;;
16115;SDS011;8162;47.104;15.432;2023-07-29T13:13:54;7.30;;;3.23;;
16115;SDS011;8162;47.104;15.432;2023-07-29T13:16:54;4.47;;;2.90;;
16115;SDS011;8162;47.104;15.432;2023-07-29T13:19:55;3.37;;;2.30;;
16115;SDS011;8162;47.104;15.432;2023-07-29T13:22:56;2.70;;;2.50;;
16115;SDS011;8162;47.104;15.432;2023-07-29T13:25:57;2.77;;;2.57;;
16115;SDS011;8162;47.104;15.432;2023-07-29T13:28:59;2.87;;;2.33;;
16115;SDS011;8162;47.104;15.432;2023-07-29T13:32:00;2.90;;;2.50;;
16115;SDS011;8162;47.104;15.432;2023-07-29T13:35:01;3.27;;;2.40;;
16115;SDS011;8162;47.104;15.432;2023-07-29T13:38:02;2.70;;;2.50;;
16115;SDS011;8162;47.104;15.432;2023-07-29T13:41:03;3.27;;;2.97;;
16115;SDS011;8162;47.104;15.432;2023-07-29T13:44:04;2.60;;;2.40;;
16115;SDS011;8162;47.104;15.432;2023-07-29T13:47:05;2.73;;;2.53;;
16115;SDS011;8162;47.104;15.432;2023-07-29T13:50:07;2.63;;;2.43;;
16115;SDS011;8162;47.104;15.432;2023-07-29T13:53:08;2.70;;;2.50;;
16115;SDS011;8162;47.104;15.432;2023-07-29T13:56:08;3.03;;;2.83;;
16115;SDS011;8162;47.104;15.432;2023-07-29T13:59:09;2.60;;;2.40;;
16115;SDS011;8162;47.104;15.432;2023-07-29T14:02:10;2.60;;;2.40;;
16115;SDS011;8162;47.104;15.432;2023-07-29T14:05:10;2.80;;;2.60;;
16115;SDS011;8162;47.104;15.432;2023-07-29T14:08:11;3.27;;;2.97;;
16115;SDS011;8162;47.104;15.432;2023-07-29T14:11:12;3.20;;;2.90;;
16115;SDS011;8162;47.104;15.432;2023-07-29T14:14:13;2.60;;;2.40;;
16115;SDS011;8162;47.104;15.432;2023-07-29T14:17:13;3.00;;;2.80;;
16115;SDS011;8162;47.104;15.432;2023-07-29T14:20:14;2.90;;;2.70;;
16115;SDS011;8162;47.104;15.432;2023-07-29T14:23:15;2.70;;;2.50;;
16115;SDS011;8162;47.104;15.432;2023-07-29T14:26:15;2.57;;;2.27;;
16115;SDS011;8162;47.104;15.432;2023-07-29T14:29:16;2.93;;;2.60;;
16115;SDS011;8162;47.104;15.432;2023-07-29T14:32:17;3.03;;;2.77;;
16115;SDS011;8162;47.104;15.432;2023-07-29T14:35:18;3.03;;;2.70;;
16115;SDS011;8162;47.104;15.432;2023-07-29T14:38:19;3.07;;;2.87;;
16115;SDS011;8162;47.104;15.432;2023-07-29T14:41:20;3.60;;;3.30;;
16115;SDS011;8162;47.104;15.432;2023-07-29T14:44:21;3.00;;;2.80;;
16115;SDS011;8162;47.104;15.432;2023-07-29T14:47:22;3.43;;;2.80;;
16115;SDS011;8162;47.104;15.432;2023-07-29T14:50:24;2.60;;;2.40;;
16115;SDS011;8162;47.104;15.432;2023-07-29T14:53:25;3.37;;;3.07;;
16115;SDS011;8162;47.104;15.432;2023-07-29T14:56:26;3.10;;;2.90;;
16115;SDS011;8162;47.104;15.432;2023-07-29T14:59:27;3.67;;;3.07;;
16115;SDS011;8162;47.104;15.432;2023-07-29T15:02:28;3.60;;;3.27;;
16115;SDS011;8162;47.104;15.432;2023-07-29T15:05:31;3.07;;;2.77;;
16115;SDS011;8162;47.104;15.432;2023-07-29T15:08:32;3.40;;;2.90;;
16115;SDS011;8162;47.104;15.432;2023-07-29T15:11:33;3.27;;;2.67;;
16115;SDS011;8162;47.104;15.432;2023-07-29T15:14:34;2.70;;;2.50;;
16115;SDS011;8162;47.104;15.432;2023-07-29T15:17:35;2.70;;;2.50;;
16115;SDS011;8162;47.104;15.432;2023-07-29T15:20:36;3.70;;;3.07;;
16115;SDS011;8162;47.104;15.432;2023-07-29T15:23:37;3.70;;;2.70;;
16115;SDS011;8162;47.104;15.432;2023-07-29T15:26:38;2.40;;;2.30;;
16115;SDS011;8162;47.104;15.432;2023-07-29T15:29:40;2.93;;;2.73;;
16115;SDS011;8162;47.104;15.432;2023-07-29T15:32:40;2.83;;;2.63;;
16115;SDS011;8162;47.104;15.432;2023-07-29T15:35:42;3.03;;;2.73;;
16115;SDS011;8162;47.104;15.432;2023-07-29T15:38:42;2.87;;;2.67;;
16115;SDS011;8162;47.104;15.432;2023-07-29T15:41:43;2.47;;;2.27;;
16115;SDS011;8162;47.104;15.432;2023-07-29T15:44:44;2.87;;;2.40;;
16115;SDS011;8162;47.104;15.432;2023-07-29T15:47:44;3.90;;;2.80;;
16115;SDS011;8162;47.104;15.432;2023-07-29T15:50:45;3.23;;;2.60;;
16115;SDS011;8162;47.104;15.432;2023-07-29T15:53:46;3.20;;;2.90;;
16115;SDS011;8162;47.104;15.432;2023-07-29T15:56:46;2.73;;;2.53;;
16115;SDS011;8162;47.104;15.432;2023-07-29T15:59:47;2.80;;;2.60;;
16115;SDS011;8162;47.104;15.432;2023-07-29T16:02:48;2.80;;;2.60;;
16115;SDS011;8162;47.104;15.432;2023-07-29T16:05:49;3.40;;;3.00;;
16115;SDS011;8162;47.104;15.432;2023-07-29T16:08:50;3.07;;;2.53;;
16115;SDS011;8162;47.104;15.432;2023-07-29T16:11:51;2.87;;;2.67;;
16115;SDS011;8162;47.104;15.432;2023-07-29T16:14:52;3.50;;;2.40;;
16115;SDS011;8162;47.104;15.432;2023-07-29T16:17:53;2.70;;;2.50;;
16115;SDS011;8162;47.104;15.432;2023-07-29T16:20:55;3.17;;;2.53;;
16115;SDS011;8162;47.104;15.432;2023-07-29T16:24:02;2.80;;;2.60;;
16115;SDS011;8162;47.104;15.432;2023-07-29T16:27:03;4.17;;;2.83;;
16115;SDS011;8162;47.104;15.432;2023-07-29T16:30:04;2.50;;;2.30;;
16115;SDS011;8162;47.104;15.432;2023-07-29T16:33:05;2.87;;;2.50;;
16115;SDS011;8162;47.104;15.432;2023-07-29T16:36:06;2.43;;;2.23;;
16115;SDS011;8162;47.104;15.432;2023-07-29T16:39:07;3.43;;;2.63;;
16115;SDS011;8162;47.104;15.432;2023-07-29T16:42:08;3.33;;;2.87;;
16115;SDS011;8162;47.104;15.432;2023-07-29T16:45:10;2.57;;;2.37;;
16115;SDS011;8162;47.104;15.432;2023-07-29T16:48:11;3.30;;;2.80;;
16115;SDS011;8162;47.104;15.432;2023-07-29T16:51:12;2.30;;;2.10;;
16115;SDS011;8162;47.104;15.432;2023-07-29T16:54:14;3.03;;;2.53;;
16115;SDS011;8162;47.104;15.432;2023-07-29T16:57:17;4.53;;;2.63;;
16115;SDS011;8162;47.104;15.432;2023-07-29T17:00:18;2.60;;;2.40;;
16115;SDS011;8162;47.104;15.432;2023-07-29T17:03:19;2.80;;;2.60;;
16115;SDS011;8162;47.104;15.432;2023-07-29T17:06:20;2.67;;;2.47;;
16115;SDS011;8162;47.104;15.432;2023-07-29T17:09:22;3.30;;;2.60;;
16115;SDS011;8162;47.104;15.432;2023-07-29T17:12:23;2.90;;;2.53;;
16115;SDS011;8162;47.104;15.432;2023-07-29T17:15:24;3.23;;;2.60;;
16115;SDS011;8162;47.104;15.432;2023-07-29T17:18:25;2.77;;;2.43;;
16115;SDS011;8162;47.104;15.432;2023-07-29T17:21:26;2.40;;;2.20;;
16115;SDS011;8162;47.104;15.432;2023-07-29T17:24:27;3.03;;;2.47;;
16115;SDS011;8162;47.104;15.432;2023-07-29T17:27:28;2.67;;;2.40;;
16115;SDS011;8162;47.104;15.432;2023-07-29T17:30:31;2.30;;;2.10;;
16115;SDS011;8162;47.104;15.432;2023-07-29T17:33:35;2.90;;;2.70;;
16115;SDS011;8162;47.104;15.432;2023-07-29T17:36:36;3.33;;;2.57;;
16115;SDS011;8162;47.104;15.432;2023-07-29T17:39:37;2.80;;;2.50;;
16115;SDS011;8162;47.104;15.432;2023-07-29T17:42:41;3.17;;;2.70;;
16115;SDS011;8162;47.104;15.432;2023-07-29T17:45:42;2.90;;;2.63;;
16115;SDS011;8162;47.104;15.432;2023-07-29T17:48:43;3.33;;;2.83;;
16115;SDS011;8162;47.104;15.432;2023-07-29T17:51:45;2.70;;;2.50;;
16115;SDS011;8162;47.104;15.432;2023-07-29T17:54:46;2.60;;;2.40;;
16115;SDS011;8162;47.104;15.432;2023-07-29T17:57:47;4.97;;;2.97;;
16115;SDS011;8162;47.104;15.432;2023-07-29T18:00:48;2.60;;;2.30;;
16115;SDS011;8162;47.104;15.432;2023-07-29T18:03:50;3.23;;;2.40;;
16115;SDS011;8162;47.104;15.432;2023-07-29T18:06:51;3.10;;;2.80;;
16115;SDS011;8162;47.104;15.432;2023-07-29T18:09:52;4.63;;;3.20;;
16115;SDS011;8162;47.104;15.432;2023-07-29T18:12:53;2.73;;;2.53;;
16115;SDS011;8162;47.104;15.432;2023-07-29T18:15:55;2.87;;;2.67;;
16115;SDS011;8162;47.104;15.432;2023-07-29T18:18:58;2.90;;;2.70;;
16115;SDS011;8162;47.104;15.432;2023-07-29T18:21:59;2.90;;;2.60;;